Hauptseite
METAR-TAF:

METAR-TAF

Flughäfen :

Niederstetten, Deutschland

Heeresflugplatz Niederstetten

Breite: 49-24N, Länge: 009-58E, Höhe: 468 m

Beobachtung

Neuester Wetterbericht von vor 23 Minuten, um 18:20 UTC
Wind 10 kt aus West
Temperatur 1°C
Luftfeuchtigkeit 93%
Luftdruck 1013 hPa
Sichtweite: 9000 m
Durchbrochene Bewölkung in der Höhe von 500 ft
Geschlossene Wolkendecke in der Höhe von 2500 ft

METAR: ETHN 161820Z 26010KT 9000 BKN005 OVC025 01/M00 Q1013 YLO

Zeit: 19:43 (18:43 UTC)


TAF: fehlend

Wetterbeobachtungen und Prognosen von mehr als 4000 Flughäfen (METAR und TAF Bericht).

Die verfügbaren Stationen werden durch gelbe und rote Markierungen auf der Karte dargestellt.

Führen Sie die Maus auf sie, um den Namen der Station zu sehen.

Darauf klicken, um die Beobachtung von Wetterbeobachtungen und Prognosen zu sehen.

Um die Karte zu ändern : klicken Sie auf den grünen Tasten mit einem schwarzen Kreuz Zum Vergrößern, auf den grünen Button mit einem Gedankenstrich zu verkleinern, oder auf die grünen Pfeile für benachbarte Karten.


METAR-TAF: